Clinchburg, Virginia
Current Conditions -  °F | °C
As of 3:55 AM on Saturday 25 Oct 2014 (Local Time) from KVJI Reporting Station
Clear Clear  
Wind Chill:   Ceiling: Unl
Heat Index:   Visibility: 10mi
Dew Point:   Wind: 0mph
Humidity: 95%   Direction: NA
Pressure: 30.08"   Gusts: NA
Location:  36.7675°N, 81.854°W
Report Text: KVJI 250755Z AUTO 00000KT 10SM CLR 04/03 A3008 RMK AO2 T00360028
Loading
Personal Weather Stations






























Interactive Weather Map
Tropical Storm Tracking
New forecast layout! Learn more

10-Day Weather Forecast

Advertisements
Track Severe Weather on mobile